createdAt,value
2023-05-04T00:01:05.451Z,5.90
2023-05-04T00:03:32.486Z,5.90
2023-05-04T00:05:59.286Z,5.90
2023-05-04T00:08:26.077Z,5.90
2023-05-04T00:10:54.369Z,5.90
2023-05-04T00:13:21.437Z,5.90
2023-05-04T00:15:48.410Z,5.90
2023-05-04T00:18:15.161Z,5.90
2023-05-04T00:20:41.929Z,5.90
2023-05-04T00:23:08.689Z,5.90
2023-05-04T00:25:35.426Z,5.90
2023-05-04T00:28:02.228Z,5.90
2023-05-04T00:30:29.074Z,5.90
2023-05-04T00:32:55.991Z,5.80
2023-05-04T00:35:22.908Z,5.80
2023-05-04T00:37:49.594Z,5.80
2023-05-04T00:40:16.730Z,5.80
2023-05-04T00:42:43.976Z,5.90
2023-05-04T00:45:11.599Z,5.80
2023-05-04T00:47:38.384Z,5.80
2023-05-04T00:50:05.799Z,5.70
2023-05-04T00:52:33.096Z,5.60
2023-05-04T00:55:00.936Z,5.60
2023-05-04T00:57:27.793Z,5.60
2023-05-04T00:59:54.512Z,5.60
2023-05-04T01:02:21.219Z,5.50
2023-05-04T01:04:48.193Z,5.50
2023-05-04T01:07:30.239Z,5.50
2023-05-04T01:09:56.942Z,5.50
2023-05-04T01:12:30.020Z,5.40
2023-05-04T01:14:57.085Z,5.40
2023-05-04T01:17:23.908Z,5.40
2023-05-04T01:19:53.897Z,5.30
2023-05-04T01:22:21.279Z,5.30
2023-05-04T01:24:48.163Z,5.30
2023-05-04T01:27:31.336Z,5.30
2023-05-04T01:29:59.186Z,5.30
2023-05-04T01:32:27.859Z,5.30
2023-05-04T01:34:55.148Z,5.30
2023-05-04T01:37:22.071Z,5.30
2023-05-04T01:39:48.853Z,5.30
2023-05-04T01:42:15.945Z,5.30
2023-05-04T01:44:43.663Z,5.20
2023-05-04T01:47:10.441Z,5.20
2023-05-04T01:49:37.403Z,5.20
2023-05-04T01:52:04.169Z,5.20
2023-05-04T01:54:31.199Z,5.20
2023-05-04T01:56:58.316Z,5.10
2023-05-04T01:59:25.185Z,5.20
2023-05-04T02:01:52.054Z,5.10
2023-05-04T02:04:18.917Z,5.10
2023-05-04T02:06:45.703Z,5.10
2023-05-04T02:09:12.808Z,5.10
2023-05-04T02:11:39.715Z,5.10
2023-05-04T02:14:06.456Z,5.00
2023-05-04T02:16:33.306Z,5.10
2023-05-04T02:19:00.600Z,5.00
2023-05-04T02:21:27.398Z,5.00
2023-05-04T02:27:15.916Z,4.90
2023-05-04T02:29:43.106Z,4.80
2023-05-04T02:32:09.816Z,4.80
2023-05-04T02:34:36.824Z,4.80
2023-05-04T02:37:06.602Z,4.80
2023-05-04T02:39:34.997Z,4.80
2023-05-04T02:42:03.088Z,4.80
2023-05-04T02:44:29.769Z,4.70
2023-05-04T02:46:56.905Z,4.70
2023-05-04T02:49:23.845Z,4.70
2023-05-04T02:51:51.500Z,4.70
2023-05-04T02:54:18.561Z,4.60
2023-05-04T02:56:45.370Z,4.60
2023-05-04T02:59:12.122Z,4.60
2023-05-04T03:01:39.005Z,4.60
2023-05-04T03:04:07.468Z,4.50
2023-05-04T03:06:34.318Z,4.50
2023-05-04T03:09:01.114Z,4.50
2023-05-04T03:11:27.926Z,4.50
2023-05-04T03:13:54.727Z,4.50
2023-05-04T03:16:21.774Z,4.40
2023-05-04T03:21:35.105Z,4.40
2023-05-04T03:24:01.967Z,4.40
2023-05-04T03:26:28.751Z,4.40
2023-05-04T03:28:55.616Z,4.30
2023-05-04T03:31:22.863Z,4.40
2023-05-04T03:33:52.252Z,4.40
2023-05-04T03:36:21.000Z,4.30
2023-05-04T03:38:47.948Z,4.30
2023-05-04T03:41:14.925Z,4.30
2023-05-04T03:43:42.160Z,4.20
2023-05-04T03:46:10.322Z,4.30
2023-05-04T03:48:37.309Z,4.20
2023-05-04T03:51:06.984Z,4.20
2023-05-04T03:53:37.442Z,4.10
2023-05-04T03:56:04.305Z,4.20
2023-05-04T03:58:31.658Z,4.20
2023-05-04T04:01:02.299Z,4.30
2023-05-04T04:03:29.520Z,4.30
2023-05-04T04:05:56.677Z,4.20
2023-05-04T04:08:25.634Z,4.20
2023-05-04T04:10:52.347Z,4.20
2023-05-04T04:13:19.409Z,4.20
2023-05-04T04:15:46.926Z,4.20
2023-05-04T04:18:13.774Z,4.30
2023-05-04T04:20:40.970Z,4.30
2023-05-04T04:23:08.085Z,4.30
2023-05-04T04:25:34.942Z,4.30
2023-05-04T04:28:01.881Z,4.40
2023-05-04T04:30:28.693Z,4.30
2023-05-04T04:32:57.348Z,4.40
2023-05-04T04:35:24.421Z,4.30
2023-05-04T04:37:51.640Z,4.40
2023-05-04T04:40:20.054Z,4.40
2023-05-04T04:42:46.787Z,4.40
2023-05-04T04:45:15.064Z,4.40
2023-05-04T04:47:42.178Z,4.50
2023-05-04T04:50:09.562Z,4.50
2023-05-04T04:52:36.677Z,4.50
2023-05-04T04:55:04.761Z,4.60
2023-05-04T04:57:31.974Z,4.70
2023-05-04T04:59:58.988Z,4.70
2023-05-04T05:02:26.574Z,4.70
2023-05-04T05:04:55.152Z,4.60
2023-05-04T05:07:22.017Z,4.70
2023-05-04T05:09:48.825Z,4.70
2023-05-04T05:12:17.029Z,4.70
2023-05-04T05:14:44.499Z,4.70
2023-05-04T05:17:11.297Z,4.70
2023-05-04T05:19:38.822Z,4.70
2023-05-04T05:22:07.105Z,4.80
2023-05-04T05:24:33.883Z,4.80
2023-05-04T05:27:00.700Z,4.90
2023-05-04T05:29:27.810Z,5.00
2023-05-04T05:31:54.575Z,5.00
2023-05-04T05:34:21.309Z,5.00
2023-05-04T05:36:49.107Z,5.00
2023-05-04T05:39:16.330Z,5.00
2023-05-04T05:41:43.677Z,5.10
2023-05-04T05:44:12.433Z,5.10
2023-05-04T05:46:40.094Z,5.20
2023-05-04T05:49:07.443Z,5.40
2023-05-04T05:51:34.366Z,5.70
2023-05-04T05:54:01.565Z,6.00
2023-05-04T05:56:28.312Z,6.10
2023-05-04T05:58:55.154Z,6.30
2023-05-04T06:01:22.317Z,6.20
2023-05-04T06:03:49.339Z,6.40
2023-05-04T06:06:17.385Z,6.30
2023-05-04T06:08:44.229Z,6.10
2023-05-04T06:11:12.001Z,6.00
2023-05-04T06:13:39.487Z,6.00
2023-05-04T06:16:06.444Z,6.00
2023-05-04T06:18:33.303Z,6.10
2023-05-04T06:21:00.519Z,5.90
2023-05-04T06:23:27.657Z,5.80
2023-05-04T06:25:54.371Z,5.90
2023-05-04T06:28:21.181Z,5.90
2023-05-04T06:30:48.613Z,5.90
2023-05-04T06:33:15.450Z,6.00
2023-05-04T06:35:42.267Z,6.10
2023-05-04T06:38:09.245Z,6.00
2023-05-04T06:40:36.264Z,6.00
2023-05-04T06:43:04.115Z,5.90
2023-05-04T06:45:31.081Z,5.70
2023-05-04T06:47:58.030Z,5.60
2023-05-04T06:50:24.878Z,5.50
2023-05-04T06:52:52.099Z,5.50
2023-05-04T06:55:19.066Z,5.60
2023-05-04T06:57:45.940Z,5.80
2023-05-04T07:00:13.108Z,6.00
2023-05-04T07:02:40.028Z,6.10
2023-05-04T07:05:07.054Z,6.20
2023-05-04T07:07:33.997Z,6.30
2023-05-04T07:10:00.969Z,6.40
2023-05-04T07:12:28.211Z,6.40
2023-05-04T07:14:55.157Z,6.40
2023-05-04T07:17:22.247Z,6.30
2023-05-04T07:19:52.233Z,6.40
2023-05-04T07:22:19.307Z,6.40
2023-05-04T07:24:46.886Z,6.50
2023-05-04T07:27:14.105Z,6.60
2023-05-04T07:29:41.733Z,6.80
2023-05-04T07:32:08.546Z,7.00
2023-05-04T07:34:44.979Z,7.20
2023-05-04T07:37:13.349Z,7.20
2023-05-04T07:39:40.256Z,7.10
2023-05-04T07:42:08.045Z,7.10
2023-05-04T07:44:34.951Z,7.00
2023-05-04T07:47:02.017Z,6.90
2023-05-04T07:49:29.007Z,6.70
2023-05-04T07:51:55.849Z,6.80
2023-05-04T07:54:23.072Z,7.00
2023-05-04T07:56:49.996Z,7.30
2023-05-04T07:59:20.324Z,7.70
2023-05-04T08:01:48.065Z,8.00
2023-05-04T08:04:14.947Z,8.20
2023-05-04T08:06:41.818Z,8.30
2023-05-04T08:09:08.963Z,8.30
2023-05-04T08:11:35.815Z,8.00
2023-05-04T08:14:02.732Z,7.70
2023-05-04T08:16:29.635Z,7.50
2023-05-04T08:18:57.085Z,7.50
2023-05-04T08:21:24.038Z,7.30
2023-05-04T08:23:50.898Z,7.50
2023-05-04T08:26:17.662Z,7.60
2023-05-04T08:28:46.162Z,7.60
2023-05-04T08:31:13.616Z,7.60
2023-05-04T08:33:40.500Z,7.80
2023-05-04T08:36:09.412Z,8.00
2023-05-04T08:38:36.593Z,8.10
2023-05-04T08:41:06.937Z,8.10
2023-05-04T08:43:35.365Z,8.00
2023-05-04T08:46:03.256Z,8.10
2023-05-04T08:48:31.672Z,8.10
2023-05-04T08:50:58.710Z,8.10
2023-05-04T08:53:26.870Z,8.30
2023-05-04T08:55:56.027Z,8.70
2023-05-04T08:58:25.203Z,9.20
2023-05-04T09:00:52.649Z,9.60
2023-05-04T09:03:20.301Z,9.60
2023-05-04T09:05:47.714Z,9.40
2023-05-04T09:08:15.225Z,9.20
2023-05-04T09:10:42.150Z,9.10
2023-05-04T09:13:08.990Z,8.90
2023-05-04T09:15:35.795Z,8.90
2023-05-04T09:18:03.848Z,8.90
2023-05-04T09:20:31.407Z,9.00
2023-05-04T09:23:01.631Z,9.30
2023-05-04T09:25:28.624Z,9.50
2023-05-04T09:27:56.203Z,9.40
2023-05-04T09:30:25.479Z,9.60
2023-05-04T09:32:53.109Z,9.90
2023-05-04T09:35:33.126Z,10.10
2023-05-04T09:38:00.965Z,10.30
2023-05-04T09:40:32.552Z,10.40
2023-05-04T09:42:59.780Z,10.20
2023-05-04T09:45:26.946Z,10.00
2023-05-04T09:47:54.490Z,9.70
2023-05-04T09:50:23.466Z,9.50
2023-05-04T09:52:51.795Z,9.40
2023-05-04T09:55:19.232Z,9.30
2023-05-04T09:57:47.752Z,9.20
2023-05-04T10:00:16.237Z,9.20
2023-05-04T10:02:43.592Z,9.40
2023-05-04T10:05:13.783Z,9.50
2023-05-04T10:07:41.612Z,9.30
2023-05-04T10:10:08.979Z,9.10
2023-05-04T10:12:35.844Z,9.10
2023-05-04T10:15:06.007Z,9.00
2023-05-04T10:17:32.905Z,8.90
2023-05-04T10:20:08.546Z,8.80
2023-05-04T10:22:38.375Z,8.80
2023-05-04T10:25:19.667Z,8.80
2023-05-04T10:27:52.607Z,8.70
2023-05-04T10:30:20.454Z,8.60
2023-05-04T10:32:54.096Z,8.60
2023-05-04T10:35:21.759Z,8.40
2023-05-04T10:37:55.559Z,8.20
2023-05-04T10:40:34.692Z,8.20
2023-05-04T10:43:01.717Z,8.20
2023-05-04T10:45:38.616Z,8.20
2023-05-04T10:48:06.113Z,8.30
2023-05-04T10:50:42.979Z,8.50
2023-05-04T10:53:10.070Z,8.70
2023-05-04T10:55:43.907Z,8.80
2023-05-04T10:58:15.139Z,9.00
2023-05-04T11:00:46.131Z,9.20
2023-05-04T11:03:14.066Z,9.40
2023-05-04T11:05:44.997Z,9.50
2023-05-04T11:08:15.824Z,9.70
2023-05-04T11:10:43.385Z,9.80
2023-05-04T11:13:14.801Z,9.80
2023-05-04T11:15:48.542Z,9.80
2023-05-04T11:18:16.890Z,9.80
2023-05-04T11:20:44.709Z,9.80
2023-05-04T11:23:15.862Z,9.50
2023-05-04T11:25:42.718Z,9.40
2023-05-04T11:28:09.546Z,9.40
2023-05-04T11:30:42.324Z,9.30
2023-05-04T11:33:13.522Z,9.10
2023-05-04T11:35:42.085Z,8.90
2023-05-04T11:38:09.172Z,8.70
2023-05-04T11:40:36.610Z,8.40
2023-05-04T11:43:04.232Z,8.20
2023-05-04T11:45:32.897Z,8.30
2023-05-04T11:48:00.288Z,8.50
2023-05-04T11:50:27.824Z,8.80
2023-05-04T11:53:06.130Z,9.00
2023-05-04T11:55:32.909Z,9.10
2023-05-04T11:58:00.629Z,9.40
2023-05-04T12:00:40.609Z,9.60
2023-05-04T12:03:08.622Z,9.80
2023-05-04T12:05:36.768Z,9.70
2023-05-04T12:08:07.553Z,9.40
2023-05-04T12:10:35.181Z,9.30
2023-05-04T12:13:02.190Z,9.10
2023-05-04T12:15:33.000Z,9.10
2023-05-04T12:18:02.491Z,9.20
2023-05-04T12:20:30.602Z,9.50
2023-05-04T12:22:57.961Z,10.00
2023-05-04T12:25:24.878Z,10.40
2023-05-04T12:27:52.763Z,10.70
2023-05-04T12:30:19.659Z,10.40
2023-05-04T12:32:46.450Z,10.30
2023-05-04T12:35:13.260Z,10.20
2023-05-04T12:37:40.209Z,10.10
2023-05-04T12:40:20.890Z,10.10
2023-05-04T12:42:54.997Z,10.20
2023-05-04T12:45:22.615Z,10.40
2023-05-04T12:47:49.682Z,10.20
2023-05-04T12:50:16.601Z,10.20
2023-05-04T12:52:43.372Z,10.30
2023-05-04T12:55:10.125Z,10.40
2023-05-04T12:57:37.561Z,10.20
2023-05-04T13:00:06.089Z,9.80
2023-05-04T13:02:33.074Z,9.60
2023-05-04T13:04:59.937Z,9.80
2023-05-04T13:07:27.438Z,9.90
2023-05-04T13:09:54.259Z,10.00
2023-05-04T13:12:21.011Z,9.70
2023-05-04T13:14:47.805Z,9.50
2023-05-04T13:17:15.184Z,9.40
2023-05-04T13:19:42.278Z,9.30
2023-05-04T13:22:09.229Z,9.10
2023-05-04T13:24:35.986Z,9.10
2023-05-04T13:27:03.028Z,9.10
2023-05-04T13:29:29.812Z,9.10
2023-05-04T13:31:57.990Z,9.10
2023-05-04T13:34:25.232Z,9.10
2023-05-04T13:36:51.914Z,9.10
2023-05-04T13:39:21.722Z,9.20
2023-05-04T13:41:48.826Z,9.30
2023-05-04T13:44:15.587Z,9.40
2023-05-04T13:46:42.388Z,9.60
2023-05-04T13:49:10.898Z,9.70
2023-05-04T13:51:38.141Z,9.90
2023-05-04T13:54:05.036Z,10.10
2023-05-04T13:56:31.866Z,10.30
2023-05-04T13:58:58.832Z,10.50
2023-05-04T14:01:26.102Z,10.60
2023-05-04T14:03:54.216Z,10.70
2023-05-04T14:06:21.858Z,10.70
2023-05-04T14:08:48.638Z,10.50
2023-05-04T14:11:15.443Z,10.30
2023-05-04T14:13:42.253Z,10.20
2023-05-04T14:16:09.027Z,10.10
2023-05-04T14:18:36.242Z,10.00
2023-05-04T14:21:03.034Z,10.10
2023-05-04T14:23:29.911Z,10.20
2023-05-04T14:25:57.271Z,10.30
2023-05-04T14:28:24.111Z,10.10
2023-05-04T14:30:51.141Z,10.20
2023-05-04T14:33:18.199Z,10.10
2023-05-04T14:35:47.951Z,10.20
2023-05-04T14:38:15.392Z,10.20
2023-05-04T14:40:42.408Z,10.30
2023-05-04T14:43:09.194Z,10.40
2023-05-04T14:45:36.093Z,10.50
2023-05-04T14:48:03.052Z,10.60
2023-05-04T14:50:29.946Z,10.50
2023-05-04T14:52:56.833Z,10.40
2023-05-04T14:55:23.923Z,10.40
2023-05-04T14:57:50.956Z,10.20
2023-05-04T15:00:19.667Z,9.90
2023-05-04T15:02:46.761Z,9.60
2023-05-04T15:05:13.690Z,9.40
2023-05-04T15:07:40.583Z,9.20
2023-05-04T15:10:09.144Z,9.30
2023-05-04T15:12:37.842Z,9.20
2023-05-04T15:15:05.006Z,9.20
2023-05-04T15:17:31.801Z,9.20
2023-05-04T15:20:00.498Z,9.30
2023-05-04T15:22:28.002Z,9.30
2023-05-04T15:24:55.700Z,9.40
2023-05-04T15:27:23.211Z,9.40
2023-05-04T15:29:50.066Z,9.40
2023-05-04T15:32:16.878Z,9.30
2023-05-04T15:34:50.808Z,9.20
2023-05-04T15:37:20.889Z,9.10
2023-05-04T15:39:47.778Z,9.10
2023-05-04T15:42:14.520Z,9.10
2023-05-04T15:44:41.429Z,9.10
2023-05-04T15:47:11.106Z,9.20
2023-05-04T15:49:38.437Z,9.10
2023-05-04T15:52:05.265Z,9.10
2023-05-04T15:54:35.283Z,9.00
2023-05-04T15:57:02.918Z,9.00
2023-05-04T15:59:30.030Z,9.20
2023-05-04T16:01:56.707Z,9.10
2023-05-04T16:04:23.658Z,9.10
2023-05-04T16:06:50.833Z,9.10
2023-05-04T16:09:20.109Z,9.20
2023-05-04T16:11:46.870Z,9.30
2023-05-04T16:14:14.283Z,9.30
2023-05-04T16:16:41.541Z,9.30
2023-05-04T16:19:10.868Z,9.40
2023-05-04T16:21:38.735Z,9.50
2023-05-04T16:24:07.598Z,9.50
2023-05-04T16:26:34.399Z,9.50
2023-05-04T16:29:01.253Z,9.50
2023-05-04T16:31:28.138Z,9.40
2023-05-04T16:33:55.337Z,9.40
2023-05-04T16:36:22.209Z,9.40
2023-05-04T16:38:48.927Z,9.30
2023-05-04T16:41:17.443Z,9.20
2023-05-04T16:43:44.296Z,9.10
2023-05-04T16:46:11.137Z,8.90
2023-05-04T16:48:38.832Z,8.80
2023-05-04T16:51:06.204Z,8.80
2023-05-04T16:53:33.213Z,8.80
2023-05-04T16:55:59.917Z,8.80
2023-05-04T16:58:27.706Z,8.80
2023-05-04T17:00:55.404Z,8.80
2023-05-04T17:03:22.602Z,8.80
2023-05-04T17:05:50.030Z,8.70
2023-05-04T17:08:17.551Z,8.70
2023-05-04T17:10:44.279Z,8.60
2023-05-04T17:13:11.194Z,8.60
2023-05-04T17:15:37.989Z,8.60
2023-05-04T17:18:04.994Z,8.70
2023-05-04T17:20:32.201Z,8.60
2023-05-04T17:22:59.234Z,8.60
2023-05-04T17:25:26.905Z,8.50
2023-05-04T17:27:54.231Z,8.50
2023-05-04T17:30:21.266Z,8.50
2023-05-04T17:32:48.842Z,8.50
2023-05-04T17:35:25.244Z,8.50
2023-05-04T17:37:58.522Z,8.50
2023-05-04T17:40:27.982Z,8.50
2023-05-04T17:42:55.385Z,8.50
2023-05-04T17:45:22.201Z,8.50
2023-05-04T17:47:50.386Z,8.40
2023-05-04T17:50:17.232Z,8.30
2023-05-04T17:52:44.076Z,8.20
2023-05-04T17:55:11.086Z,8.20
2023-05-04T17:57:37.952Z,8.10
2023-05-04T18:00:07.349Z,8.10
2023-05-04T18:02:34.685Z,8.10
2023-05-04T18:05:01.544Z,8.10
2023-05-04T18:07:28.330Z,8.10
2023-05-04T18:09:56.217Z,8.00
2023-05-04T18:12:23.114Z,8.00
2023-05-04T18:14:51.191Z,8.00
2023-05-04T18:17:17.915Z,8.00
2023-05-04T18:19:44.711Z,8.00
2023-05-04T18:22:11.429Z,8.00
2023-05-04T18:24:38.240Z,8.00
2023-05-04T18:27:05.138Z,8.00
2023-05-04T18:29:33.721Z,8.00
2023-05-04T18:32:01.232Z,8.10
2023-05-04T18:34:28.097Z,8.10
2023-05-04T18:36:54.899Z,8.20
2023-05-04T18:39:22.288Z,8.20
2023-05-04T18:41:49.161Z,8.20
2023-05-04T18:44:16.457Z,8.30
2023-05-04T18:46:43.254Z,8.30
2023-05-04T18:49:10.004Z,8.30
2023-05-04T18:51:36.777Z,8.30
2023-05-04T18:54:03.723Z,8.30
2023-05-04T18:56:30.634Z,8.30
2023-05-04T18:58:57.382Z,8.20
2023-05-04T19:01:24.575Z,8.20
2023-05-04T19:03:51.450Z,8.20
2023-05-04T19:06:18.323Z,8.20
2023-05-04T19:08:45.065Z,8.10
2023-05-04T19:11:12.308Z,8.00
2023-05-04T19:13:39.188Z,7.90
2023-05-04T19:16:06.704Z,7.90
2023-05-04T19:18:33.931Z,7.80
2023-05-04T19:21:03.990Z,7.70
2023-05-04T19:23:31.178Z,7.60
2023-05-04T19:25:58.298Z,7.50
2023-05-04T19:28:25.091Z,7.40
2023-05-04T19:30:54.003Z,7.30
2023-05-04T19:33:21.675Z,7.30
2023-05-04T19:35:49.124Z,7.30
2023-05-04T19:38:16.171Z,7.30
2023-05-04T19:40:43.216Z,7.20
2023-05-04T19:43:10.065Z,7.10
2023-05-04T19:45:37.154Z,7.10
2023-05-04T19:48:04.877Z,7.00
2023-05-04T19:50:31.938Z,6.90
2023-05-04T19:52:58.729Z,6.80
2023-05-04T19:55:25.605Z,6.70
2023-05-04T19:57:52.464Z,6.60
2023-05-04T20:00:19.463Z,6.50
2023-05-04T20:02:46.928Z,6.40
2023-05-04T20:05:14.243Z,6.30
2023-05-04T20:07:40.982Z,6.20
2023-05-04T20:10:08.447Z,6.00
2023-05-04T20:12:36.570Z,5.90
2023-05-04T20:15:04.059Z,5.80
2023-05-04T20:17:30.831Z,5.60
2023-05-04T20:19:57.754Z,5.50
2023-05-04T20:22:24.807Z,5.50
2023-05-04T20:24:51.537Z,5.40
2023-05-04T20:27:18.362Z,5.30
2023-05-04T20:29:45.437Z,5.20
2023-05-04T20:32:12.473Z,5.00
2023-05-04T20:34:39.761Z,4.90
2023-05-04T20:37:07.293Z,4.70
2023-05-04T20:39:34.060Z,4.50
2023-05-04T20:42:01.336Z,4.40
2023-05-04T20:44:28.140Z,4.30
2023-05-04T20:46:55.000Z,4.30
2023-05-04T20:49:21.804Z,4.10
2023-05-04T20:51:48.586Z,4.10
2023-05-04T20:54:15.463Z,4.00
2023-05-04T20:56:42.404Z,3.90
2023-05-04T20:59:09.208Z,4.00
2023-05-04T21:01:35.967Z,3.90
2023-05-04T21:04:02.866Z,3.90
2023-05-04T21:06:29.813Z,3.80
2023-05-04T21:08:57.303Z,3.70
2023-05-04T21:11:24.385Z,3.60
2023-05-04T21:13:51.080Z,3.60
2023-05-04T21:16:18.299Z,3.50
2023-05-04T21:18:45.359Z,3.40
2023-05-04T21:21:12.250Z,3.30
2023-05-04T21:23:39.428Z,3.20
2023-05-04T21:26:06.369Z,3.20
2023-05-04T21:28:33.495Z,3.10
2023-05-04T21:31:01.456Z,3.20
2023-05-04T21:33:28.215Z,3.20
2023-05-04T21:35:55.078Z,3.10
2023-05-04T21:38:22.410Z,3.00
2023-05-04T21:40:49.398Z,2.90
2023-05-04T21:43:16.433Z,2.80
2023-05-04T21:45:43.556Z,2.80
2023-05-04T21:48:10.878Z,2.70
2023-05-04T21:50:37.694Z,2.60
2023-05-04T21:53:04.514Z,2.60
2023-05-04T21:55:31.479Z,2.50
2023-05-04T21:57:58.154Z,2.50
2023-05-04T22:00:25.191Z,2.50
2023-05-04T22:02:53.584Z,2.50
2023-05-04T22:05:22.325Z,2.40
2023-05-04T22:07:50.000Z,2.40
2023-05-04T22:10:17.142Z,2.40
2023-05-04T22:12:43.996Z,2.30
2023-05-04T22:15:11.193Z,2.30
2023-05-04T22:17:38.061Z,2.30
2023-05-04T22:20:05.852Z,2.20
2023-05-04T22:22:32.835Z,2.30
2023-05-04T22:24:59.675Z,2.30
2023-05-04T22:27:26.769Z,2.30
2023-05-04T22:29:53.727Z,2.20
2023-05-04T22:32:20.638Z,2.10
2023-05-04T22:34:47.425Z,1.90
2023-05-04T22:37:14.241Z,1.80
2023-05-04T22:39:40.980Z,1.70
2023-05-04T22:42:07.822Z,1.60
2023-05-04T22:44:34.734Z,1.50
2023-05-04T22:47:01.910Z,1.50
2023-05-04T22:49:28.708Z,1.50
2023-05-04T22:51:55.630Z,1.40
2023-05-04T22:54:22.500Z,1.30
2023-05-04T22:56:49.275Z,1.30
2023-05-04T22:59:15.999Z,1.30
2023-05-04T23:01:43.637Z,1.20
2023-05-04T23:04:11.561Z,1.20
2023-05-04T23:06:38.694Z,1.10
2023-05-04T23:09:05.687Z,1.10
2023-05-04T23:11:32.518Z,1.00
2023-05-04T23:13:59.528Z,0.90
2023-05-04T23:16:26.389Z,0.90
2023-05-04T23:18:53.429Z,0.90
2023-05-04T23:21:20.345Z,0.90
2023-05-04T23:23:47.323Z,0.80
2023-05-04T23:26:14.117Z,0.80
2023-05-04T23:28:41.254Z,0.90
2023-05-04T23:31:08.260Z,0.80
2023-05-04T23:33:35.279Z,0.80
2023-05-04T23:36:02.232Z,0.70
2023-05-04T23:38:29.122Z,0.60
2023-05-04T23:40:56.151Z,0.60
2023-05-04T23:43:23.695Z,0.60
2023-05-04T23:45:50.881Z,0.60
2023-05-04T23:48:17.740Z,0.60
2023-05-04T23:50:51.836Z,0.60
2023-05-04T23:53:18.646Z,0.60
2023-05-04T23:55:45.588Z,0.60
2023-05-04T23:58:12.340Z,0.60
